Lyndhurst, NJ (07071)

6:56 PM EDT on August 21, 2014 (GMT -0400)
North Arlington EMS | Change Station
CLOSE
Current Station
Personal Weather Station
Location: North Arlington, NJ
Elevation: 27 ft
Nearby Weather Stations

Elev 27 ft 40.79 °N, 74.12 °W | Updated 1 second ago

Clear
Clear
76.4 °F
Feels Like 78 °F
N
0.0
Wind Variable Wind from ESE
Gusts 0.0 mph

Today
High -- | Low -- °F
--% Chance of Precip.
Yesterday
High -- | Low -- °F
Precip. -- in
6:12 AM 7:45 PM
Waning Crescent, 12% visible
Pressure 30.00 in
Visibility 10.0 miles
Clouds Clear
Heat Index 78 °F
Dew Point 63 °F
Humidity 64%
Rainfall 0.11 in
Snow Depth Not available.
UV 1 out of 12
Pollen 8.70 out of 12
Air Quality Not available.
Flu Activity Not available.
METAR KTEB 212151Z 17007KT 10SM CLR 26/13 A2999 RMK AO2 SLP157 T02610133

More Conditions Fewer Conditions

Pressure 30.00 in
Visibility 10.0 miles
Clouds Clear
Heat Index 78 °F
Dew Point 63 °F
Humidity 64%
Rainfall 0.11 in
Snow Depth Not available.
UV 1 out of 12
Pollen 8.70 out of 12
Air Quality Not available.
Flu Activity Not available.
METAR KTEB 212151Z 17007KT 10SM CLR 26/13 A2999 RMK AO2 SLP157 T02610133

More Conditions Fewer Conditions

10-Day Weather Forecast

Almanac

Astronomy

Aug. 21, 2014 Rise Set
Actual Time 6:12 AM EDT 7:45 PM EDT
Civil Twilight 5:43 AM EDT 8:14 PM EDT
Nautical Twilight 5:08 AM EDT 8:49 PM EDT
Astronomical Twilight 4:31 AM EDT 9:26 PM EDT
Moon 2:40 AM EDT 5:13 PM EDT
Length of Visible Light 14h 31m
Length of Day
13h 33m
Tomorrow will be 2m 29s shorter.
Waning Crescent, 12% of the Moon is Illuminated
Today
Waning Crescent
Aug 25
New
Sep 2
First Quarter
Sep 8
Full
Sep 15
Last Quarter

Today's Extremes

State Highs State Lows

Community

WunderPhotos

Upload Photos

1,746,044 photos uploaded!

WunderBlogs® & News

Nearby

Snow Depth

Station Depth Elevation
No new snow has been reported.

Earthquake Activity

City Distance Mag. Time & Date
No recent earthquake activity has been reported nearby.
Minimum magnitude displayed is 2.5.

Coastal Water Temperatures

Place Temperature
Sandy Hook, NJ 75.0 °F
The Battery, NY 73.0 °F
Bergen Point West Reach, NJ 73.9 °F

Nearby Weather Stations